sensor_id;sensor_type;location;lat;lon;timestamp;P1;durP1;ratioP1;P2;durP2;ratioP2
73779;SDS011;62093;37.614;15.072;2023-09-30T00:00:11;9.40;;;6.40;;
73779;SDS011;62093;37.614;15.072;2023-09-30T00:02:43;8.80;;;6.35;;
73779;SDS011;62093;37.614;15.072;2023-09-30T00:05:10;9.07;;;6.72;;
73779;SDS011;62093;37.614;15.072;2023-09-30T00:07:51;8.82;;;6.32;;
73779;SDS011;62093;37.614;15.072;2023-09-30T00:10:21;8.80;;;6.32;;
73779;SDS011;62093;37.614;15.072;2023-09-30T00:13:02;9.30;;;6.20;;
73779;SDS011;62093;37.614;15.072;2023-09-30T00:15:38;10.50;;;6.63;;
73779;SDS011;62093;37.614;15.072;2023-09-30T00:18:10;9.63;;;6.40;;
73779;SDS011;62093;37.614;15.072;2023-09-30T00:20:39;10.38;;;6.50;;
73779;SDS011;62093;37.614;15.072;2023-09-30T00:23:06;9.32;;;6.45;;
73779;SDS011;62093;37.614;15.072;2023-09-30T00:25:42;9.70;;;6.37;;
73779;SDS011;62093;37.614;15.072;2023-09-30T00:28:14;10.13;;;6.28;;
73779;SDS011;62093;37.614;15.072;2023-09-30T00:30:42;9.23;;;6.38;;
73779;SDS011;62093;37.614;15.072;2023-09-30T00:33:14;9.30;;;6.43;;
73779;SDS011;62093;37.614;15.072;2023-09-30T00:35:57;8.82;;;6.03;;
73779;SDS011;62093;37.614;15.072;2023-09-30T00:38:30;8.83;;;6.07;;
73779;SDS011;62093;37.614;15.072;2023-09-30T00:41:03;9.02;;;6.10;;
73779;SDS011;62093;37.614;15.072;2023-09-30T00:43:30;9.00;;;5.85;;
73779;SDS011;62093;37.614;15.072;2023-09-30T00:46:04;9.05;;;6.38;;
73779;SDS011;62093;37.614;15.072;2023-09-30T00:49:14;9.52;;;5.65;;
73779;SDS011;62093;37.614;15.072;2023-09-30T00:51:46;8.60;;;6.20;;
73779;SDS011;62093;37.614;15.072;2023-09-30T00:54:19;8.75;;;6.22;;
73779;SDS011;62093;37.614;15.072;2023-09-30T00:56:57;8.68;;;6.07;;
73779;SDS011;62093;37.614;15.072;2023-09-30T00:59:28;9.32;;;5.80;;
73779;SDS011;62093;37.614;15.072;2023-09-30T01:02:03;9.48;;;6.28;;
73779;SDS011;62093;37.614;15.072;2023-09-30T01:04:36;8.60;;;5.60;;
73779;SDS011;62093;37.614;15.072;2023-09-30T01:07:05;8.18;;;5.88;;
73779;SDS011;62093;37.614;15.072;2023-09-30T01:09:35;8.85;;;6.15;;
73779;SDS011;62093;37.614;15.072;2023-09-30T01:12:03;9.68;;;6.38;;
73779;SDS011;62093;37.614;15.072;2023-09-30T01:14:43;9.57;;;6.40;;
73779;SDS011;62093;37.614;15.072;2023-09-30T01:17:18;8.97;;;6.20;;
73779;SDS011;62093;37.614;15.072;2023-09-30T01:19:51;8.77;;;6.05;;
73779;SDS011;62093;37.614;15.072;2023-09-30T01:22:24;8.80;;;6.30;;
73779;SDS011;62093;37.614;15.072;2023-09-30T01:24:59;9.10;;;6.00;;
73779;SDS011;62093;37.614;15.072;2023-09-30T01:27:27;9.43;;;6.15;;
73779;SDS011;62093;37.614;15.072;2023-09-30T01:30:04;9.00;;;5.97;;
73779;SDS011;62093;37.614;15.072;2023-09-30T01:32:41;8.27;;;6.22;;
73779;SDS011;62093;37.614;15.072;2023-09-30T01:35:12;8.35;;;5.45;;
73779;SDS011;62093;37.614;15.072;2023-09-30T01:37:45;8.50;;;5.90;;
73779;SDS011;62093;37.614;15.072;2023-09-30T01:40:17;9.38;;;6.30;;
73779;SDS011;62093;37.614;15.072;2023-09-30T01:42:45;8.80;;;6.00;;
73779;SDS011;62093;37.614;15.072;2023-09-30T01:45:14;8.20;;;5.75;;
73779;SDS011;62093;37.614;15.072;2023-09-30T01:47:45;8.43;;;5.93;;
73779;SDS011;62093;37.614;15.072;2023-09-30T01:50:22;8.68;;;6.03;;
73779;SDS011;62093;37.614;15.072;2023-09-30T01:52:55;10.32;;;6.05;;
73779;SDS011;62093;37.614;15.072;2023-09-30T01:55:28;8.23;;;5.73;;
73779;SDS011;62093;37.614;15.072;2023-09-30T02:01:06;8.43;;;5.72;;
73779;SDS011;62093;37.614;15.072;2023-09-30T02:03:45;8.18;;;5.50;;
73779;SDS011;62093;37.614;15.072;2023-09-30T02:06:13;9.25;;;5.50;;
73779;SDS011;62093;37.614;15.072;2023-09-30T02:08:50;8.10;;;5.90;;
73779;SDS011;62093;37.614;15.072;2023-09-30T02:11:26;8.77;;;5.90;;
73779;SDS011;62093;37.614;15.072;2023-09-30T02:13:55;7.93;;;5.63;;
73779;SDS011;62093;37.614;15.072;2023-09-30T02:16:28;9.43;;;5.60;;
73779;SDS011;62093;37.614;15.072;2023-09-30T02:19:18;8.95;;;5.53;;
73779;SDS011;62093;37.614;15.072;2023-09-30T02:21:46;8.13;;;5.90;;
73779;SDS011;62093;37.614;15.072;2023-09-30T02:24:21;8.55;;;5.65;;
73779;SDS011;62093;37.614;15.072;2023-09-30T02:26:55;7.90;;;5.35;;
73779;SDS011;62093;37.614;15.072;2023-09-30T02:29:38;7.60;;;5.45;;
73779;SDS011;62093;37.614;15.072;2023-09-30T02:32:10;9.10;;;5.72;;
73779;SDS011;62093;37.614;15.072;2023-09-30T02:34:55;8.70;;;5.87;;
73779;SDS011;62093;37.614;15.072;2023-09-30T02:37:25;8.75;;;5.60;;
73779;SDS011;62093;37.614;15.072;2023-09-30T02:40:00;8.20;;;5.05;;
73779;SDS011;62093;37.614;15.072;2023-09-30T02:42:30;8.15;;;5.35;;
73779;SDS011;62093;37.614;15.072;2023-09-30T02:45:05;8.55;;;5.70;;
73779;SDS011;62093;37.614;15.072;2023-09-30T02:47:42;8.23;;;5.10;;
73779;SDS011;62093;37.614;15.072;2023-09-30T02:50:18;8.65;;;5.85;;
73779;SDS011;62093;37.614;15.072;2023-09-30T02:52:52;9.15;;;5.60;;
73779;SDS011;62093;37.614;15.072;2023-09-30T02:55:29;8.10;;;5.55;;
73779;SDS011;62093;37.614;15.072;2023-09-30T02:58:05;8.55;;;5.63;;
73779;SDS011;62093;37.614;15.072;2023-09-30T03:00:36;8.60;;;5.40;;
73779;SDS011;62093;37.614;15.072;2023-09-30T03:03:12;8.57;;;5.47;;
73779;SDS011;62093;37.614;15.072;2023-09-30T03:05:45;7.97;;;5.50;;
73779;SDS011;62093;37.614;15.072;2023-09-30T03:08:16;8.30;;;5.25;;
73779;SDS011;62093;37.614;15.072;2023-09-30T03:10:52;8.05;;;5.25;;
73779;SDS011;62093;37.614;15.072;2023-09-30T03:13:19;7.97;;;5.40;;
73779;SDS011;62093;37.614;15.072;2023-09-30T03:15:52;8.63;;;5.60;;
73779;SDS011;62093;37.614;15.072;2023-09-30T03:18:26;8.98;;;5.93;;
73779;SDS011;62093;37.614;15.072;2023-09-30T03:21:12;7.43;;;5.40;;
73779;SDS011;62093;37.614;15.072;2023-09-30T03:23:40;7.88;;;5.25;;
73779;SDS011;62093;37.614;15.072;2023-09-30T03:26:10;8.37;;;5.60;;
73779;SDS011;62093;37.614;15.072;2023-09-30T03:28:42;8.00;;;5.50;;
73779;SDS011;62093;37.614;15.072;2023-09-30T03:31:11;8.52;;;5.22;;
73779;SDS011;62093;37.614;15.072;2023-09-30T03:33:39;8.38;;;5.55;;
73779;SDS011;62093;37.614;15.072;2023-09-30T03:36:13;7.63;;;5.13;;
73779;SDS011;62093;37.614;15.072;2023-09-30T03:38:42;8.37;;;5.47;;
73779;SDS011;62093;37.614;15.072;2023-09-30T03:41:15;7.80;;;5.18;;
73779;SDS011;62093;37.614;15.072;2023-09-30T03:43:47;8.27;;;5.55;;
73779;SDS011;62093;37.614;15.072;2023-09-30T03:46:17;8.43;;;5.22;;
73779;SDS011;62093;37.614;15.072;2023-09-30T03:48:44;7.63;;;5.35;;
73779;SDS011;62093;37.614;15.072;2023-09-30T03:51:24;9.30;;;5.37;;
73779;SDS011;62093;37.614;15.072;2023-09-30T03:54:01;7.78;;;5.30;;
73779;SDS011;62093;37.614;15.072;2023-09-30T03:56:32;8.02;;;5.60;;
73779;SDS011;62093;37.614;15.072;2023-09-30T03:59:11;8.65;;;5.32;;
73779;SDS011;62093;37.614;15.072;2023-09-30T04:01:54;7.90;;;5.35;;
73779;SDS011;62093;37.614;15.072;2023-09-30T04:04:28;8.10;;;4.80;;
73779;SDS011;62093;37.614;15.072;2023-09-30T04:07:07;8.93;;;5.30;;
73779;SDS011;62093;37.614;15.072;2023-09-30T04:09:37;8.57;;;5.53;;
73779;SDS011;62093;37.614;15.072;2023-09-30T04:12:09;8.40;;;5.35;;
73779;SDS011;62093;37.614;15.072;2023-09-30T04:14:49;8.38;;;5.72;;
73779;SDS011;62093;37.614;15.072;2023-09-30T04:17:21;7.83;;;5.00;;
73779;SDS011;62093;37.614;15.072;2023-09-30T04:19:55;8.73;;;5.60;;
73779;SDS011;62093;37.614;15.072;2023-09-30T04:22:37;8.38;;;5.18;;
73779;SDS011;62093;37.614;15.072;2023-09-30T04:25:10;8.35;;;5.20;;
73779;SDS011;62093;37.614;15.072;2023-09-30T04:27:50;8.63;;;5.57;;
73779;SDS011;62093;37.614;15.072;2023-09-30T04:30:33;8.00;;;5.00;;
73779;SDS011;62093;37.614;15.072;2023-09-30T04:33:04;7.63;;;4.97;;
73779;SDS011;62093;37.614;15.072;2023-09-30T04:38:25;8.00;;;5.07;;
73779;SDS011;62093;37.614;15.072;2023-09-30T04:40:54;7.82;;;5.40;;
73779;SDS011;62093;37.614;15.072;2023-09-30T04:43:37;8.33;;;5.00;;
73779;SDS011;62093;37.614;15.072;2023-09-30T04:46:24;8.73;;;5.60;;
73779;SDS011;62093;37.614;15.072;2023-09-30T04:48:53;8.85;;;5.05;;
73779;SDS011;62093;37.614;15.072;2023-09-30T04:51:24;7.78;;;5.05;;
73779;SDS011;62093;37.614;15.072;2023-09-30T04:53:58;8.15;;;4.93;;
73779;SDS011;62093;37.614;15.072;2023-09-30T04:56:44;7.90;;;5.00;;
73779;SDS011;62093;37.614;15.072;2023-09-30T04:59:23;7.50;;;4.80;;
73779;SDS011;62093;37.614;15.072;2023-09-30T05:01:53;8.07;;;5.32;;
73779;SDS011;62093;37.614;15.072;2023-09-30T05:04:25;7.68;;;5.05;;
73779;SDS011;62093;37.614;15.072;2023-09-30T05:06:58;7.57;;;4.90;;
73779;SDS011;62093;37.614;15.072;2023-09-30T05:09:32;8.07;;;5.20;;
73779;SDS011;62093;37.614;15.072;2023-09-30T05:12:06;7.80;;;5.00;;
73779;SDS011;62093;37.614;15.072;2023-09-30T05:14:41;7.50;;;4.95;;
73779;SDS011;62093;37.614;15.072;2023-09-30T05:17:13;7.53;;;5.00;;
73779;SDS011;62093;37.614;15.072;2023-09-30T05:19:47;7.22;;;5.00;;
73779;SDS011;62093;37.614;15.072;2023-09-30T05:22:15;7.50;;;4.80;;
73779;SDS011;62093;37.614;15.072;2023-09-30T05:24:45;6.88;;;4.78;;
73779;SDS011;62093;37.614;15.072;2023-09-30T05:27:13;7.85;;;4.95;;
73779;SDS011;62093;37.614;15.072;2023-09-30T05:29:50;8.55;;;5.20;;
73779;SDS011;62093;37.614;15.072;2023-09-30T05:32:18;7.60;;;5.03;;
73779;SDS011;62093;37.614;15.072;2023-09-30T05:34:54;8.13;;;5.33;;
73779;SDS011;62093;37.614;15.072;2023-09-30T05:37:22;7.55;;;5.05;;
73779;SDS011;62093;37.614;15.072;2023-09-30T05:40:10;7.85;;;5.10;;
73779;SDS011;62093;37.614;15.072;2023-09-30T05:42:48;8.38;;;5.28;;
73779;SDS011;62093;37.614;15.072;2023-09-30T05:45:16;8.75;;;5.40;;
73779;SDS011;62093;37.614;15.072;2023-09-30T05:48:08;7.53;;;4.90;;
73779;SDS011;62093;37.614;15.072;2023-09-30T05:50:39;7.45;;;4.78;;
73779;SDS011;62093;37.614;15.072;2023-09-30T05:53:30;7.53;;;5.20;;
73779;SDS011;62093;37.614;15.072;2023-09-30T05:56:04;7.13;;;4.47;;
73779;SDS011;62093;37.614;15.072;2023-09-30T05:58:52;7.63;;;4.97;;
73779;SDS011;62093;37.614;15.072;2023-09-30T06:01:26;7.33;;;4.93;;
73779;SDS011;62093;37.614;15.072;2023-09-30T06:04:04;8.38;;;5.00;;
73779;SDS011;62093;37.614;15.072;2023-09-30T06:06:39;7.65;;;4.85;;
73779;SDS011;62093;37.614;15.072;2023-09-30T06:09:47;7.63;;;5.05;;
73779;SDS011;62093;37.614;15.072;2023-09-30T06:12:16;7.25;;;4.95;;
73779;SDS011;62093;37.614;15.072;2023-09-30T06:15:16;7.43;;;4.90;;
73779;SDS011;62093;37.614;15.072;2023-09-30T06:17:54;7.85;;;5.20;;
73779;SDS011;62093;37.614;15.072;2023-09-30T06:20:23;7.40;;;5.00;;
73779;SDS011;62093;37.614;15.072;2023-09-30T06:22:55;6.85;;;5.00;;
73779;SDS011;62093;37.614;15.072;2023-09-30T06:25:49;8.73;;;5.50;;
73779;SDS011;62093;37.614;15.072;2023-09-30T06:28:21;7.33;;;4.77;;
73779;SDS011;62093;37.614;15.072;2023-09-30T06:30:55;7.72;;;5.10;;
73779;SDS011;62093;37.614;15.072;2023-09-30T06:33:25;7.30;;;5.05;;
73779;SDS011;62093;37.614;15.072;2023-09-30T06:35:56;7.95;;;4.68;;
73779;SDS011;62093;37.614;15.072;2023-09-30T06:38:25;8.43;;;5.22;;
73779;SDS011;62093;37.614;15.072;2023-09-30T06:40:54;8.17;;;5.37;;
73779;SDS011;62093;37.614;15.072;2023-09-30T06:43:26;7.22;;;4.80;;
73779;SDS011;62093;37.614;15.072;2023-09-30T06:46:17;9.73;;;5.00;;
73779;SDS011;62093;37.614;15.072;2023-09-30T06:48:47;8.50;;;5.22;;
73779;SDS011;62093;37.614;15.072;2023-09-30T06:51:21;7.30;;;4.57;;
73779;SDS011;62093;37.614;15.072;2023-09-30T06:53:50;7.80;;;5.33;;
73779;SDS011;62093;37.614;15.072;2023-09-30T06:56:20;9.15;;;5.10;;
73779;SDS011;62093;37.614;15.072;2023-09-30T06:58:54;6.78;;;4.63;;
73779;SDS011;62093;37.614;15.072;2023-09-30T07:01:29;7.85;;;4.93;;
73779;SDS011;62093;37.614;15.072;2023-09-30T07:04:10;7.45;;;5.00;;
73779;SDS011;62093;37.614;15.072;2023-09-30T07:06:53;7.73;;;4.80;;
73779;SDS011;62093;37.614;15.072;2023-09-30T07:09:36;9.52;;;5.07;;
73779;SDS011;62093;37.614;15.072;2023-09-30T07:12:11;7.40;;;4.88;;
73779;SDS011;62093;37.614;15.072;2023-09-30T07:14:44;8.07;;;4.85;;
73779;SDS011;62093;37.614;15.072;2023-09-30T07:17:23;8.02;;;4.97;;
73779;SDS011;62093;37.614;15.072;2023-09-30T07:19:55;7.07;;;4.53;;
73779;SDS011;62093;37.614;15.072;2023-09-30T07:22:32;8.98;;;5.18;;
73779;SDS011;62093;37.614;15.072;2023-09-30T07:25:02;8.55;;;5.30;;
73779;SDS011;62093;37.614;15.072;2023-09-30T07:27:33;9.35;;;5.00;;
73779;SDS011;62093;37.614;15.072;2023-09-30T07:30:13;8.98;;;4.82;;
73779;SDS011;62093;37.614;15.072;2023-09-30T07:32:55;8.30;;;4.80;;
73779;SDS011;62093;37.614;15.072;2023-09-30T07:35:23;10.00;;;5.47;;
73779;SDS011;62093;37.614;15.072;2023-09-30T07:38:01;8.60;;;4.70;;
73779;SDS011;62093;37.614;15.072;2023-09-30T07:40:40;8.48;;;5.15;;
73779;SDS011;62093;37.614;15.072;2023-09-30T07:43:27;7.35;;;4.65;;
73779;SDS011;62093;37.614;15.072;2023-09-30T07:46:07;9.27;;;5.77;;
73779;SDS011;62093;37.614;15.072;2023-09-30T07:48:39;8.98;;;5.28;;
73779;SDS011;62093;37.614;15.072;2023-09-30T07:51:06;7.88;;;5.15;;
73779;SDS011;62093;37.614;15.072;2023-09-30T07:53:45;9.23;;;5.40;;
73779;SDS011;62093;37.614;15.072;2023-09-30T07:56:19;7.93;;;5.05;;
73779;SDS011;62093;37.614;15.072;2023-09-30T07:58:48;8.23;;;5.30;;
73779;SDS011;62093;37.614;15.072;2023-09-30T08:01:31;9.13;;;5.50;;
73779;SDS011;62093;37.614;15.072;2023-09-30T08:04:14;7.97;;;4.97;;
73779;SDS011;62093;37.614;15.072;2023-09-30T08:06:43;9.07;;;4.78;;
73779;SDS011;62093;37.614;15.072;2023-09-30T08:09:22;7.78;;;5.10;;
73779;SDS011;62093;37.614;15.072;2023-09-30T08:11:50;8.97;;;5.03;;
73779;SDS011;62093;37.614;15.072;2023-09-30T08:14:22;8.38;;;5.00;;
73779;SDS011;62093;37.614;15.072;2023-09-30T08:16:55;7.95;;;4.97;;
73779;SDS011;62093;37.614;15.072;2023-09-30T08:19:22;8.00;;;4.88;;
73779;SDS011;62093;37.614;15.072;2023-09-30T08:21:49;11.05;;;5.20;;
73779;SDS011;62093;37.614;15.072;2023-09-30T08:24:19;8.90;;;5.50;;
73779;SDS011;62093;37.614;15.072;2023-09-30T08:26:52;8.25;;;5.43;;
73779;SDS011;62093;37.614;15.072;2023-09-30T08:29:41;9.25;;;5.18;;
73779;SDS011;62093;37.614;15.072;2023-09-30T08:32:16;8.15;;;5.35;;
73779;SDS011;62093;37.614;15.072;2023-09-30T08:34:45;8.32;;;4.95;;
73779;SDS011;62093;37.614;15.072;2023-09-30T08:37:12;9.57;;;5.60;;
73779;SDS011;62093;37.614;15.072;2023-09-30T08:39:43;8.50;;;5.32;;
73779;SDS011;62093;37.614;15.072;2023-09-30T08:42:13;8.75;;;5.55;;
73779;SDS011;62093;37.614;15.072;2023-09-30T08:45:01;8.13;;;5.00;;
73779;SDS011;62093;37.614;15.072;2023-09-30T08:47:36;7.72;;;5.32;;
73779;SDS011;62093;37.614;15.072;2023-09-30T08:50:04;8.23;;;5.33;;
73779;SDS011;62093;37.614;15.072;2023-09-30T08:52:39;9.55;;;5.65;;
73779;SDS011;62093;37.614;15.072;2023-09-30T08:55:12;10.23;;;5.50;;
73779;SDS011;62093;37.614;15.072;2023-09-30T08:57:45;9.25;;;5.38;;
73779;SDS011;62093;37.614;15.072;2023-09-30T09:00:15;8.30;;;5.80;;
73779;SDS011;62093;37.614;15.072;2023-09-30T09:02:44;10.17;;;5.60;;
73779;SDS011;62093;37.614;15.072;2023-09-30T09:05:12;10.02;;;5.68;;
73779;SDS011;62093;37.614;15.072;2023-09-30T09:07:40;9.82;;;5.72;;
73779;SDS011;62093;37.614;15.072;2023-09-30T09:10:16;9.00;;;5.82;;
73779;SDS011;62093;37.614;15.072;2023-09-30T09:12:58;9.45;;;5.95;;
73779;SDS011;62093;37.614;15.072;2023-09-30T09:15:28;8.73;;;5.63;;
73779;SDS011;62093;37.614;15.072;2023-09-30T09:17:56;9.10;;;5.68;;
73779;SDS011;62093;37.614;15.072;2023-09-30T09:20:34;8.90;;;5.40;;
73779;SDS011;62093;37.614;15.072;2023-09-30T09:23:10;8.60;;;5.47;;
73779;SDS011;62093;37.614;15.072;2023-09-30T09:25:51;8.60;;;5.60;;
73779;SDS011;62093;37.614;15.072;2023-09-30T09:28:20;8.90;;;5.23;;
73779;SDS011;62093;37.614;15.072;2023-09-30T09:31:36;8.13;;;5.60;;
73779;SDS011;62093;37.614;15.072;2023-09-30T09:34:14;9.02;;;5.20;;
73779;SDS011;62093;37.614;15.072;2023-09-30T09:36:42;10.48;;;5.65;;
73779;SDS011;62093;37.614;15.072;2023-09-30T09:39:40;9.13;;;5.40;;
73779;SDS011;62093;37.614;15.072;2023-09-30T09:42:09;8.87;;;5.50;;
73779;SDS011;62093;37.614;15.072;2023-09-30T09:44:39;8.57;;;5.47;;
73779;SDS011;62093;37.614;15.072;2023-09-30T09:47:16;8.93;;;5.10;;
73779;SDS011;62093;37.614;15.072;2023-09-30T09:49:53;9.98;;;5.35;;
73779;SDS011;62093;37.614;15.072;2023-09-30T09:52:25;8.13;;;5.50;;
73779;SDS011;62093;37.614;15.072;2023-09-30T09:54:54;7.63;;;5.33;;
73779;SDS011;62093;37.614;15.072;2023-09-30T09:57:21;9.98;;;6.07;;
73779;SDS011;62093;37.614;15.072;2023-09-30T09:59:54;9.43;;;5.05;;
73779;SDS011;62093;37.614;15.072;2023-09-30T10:02:28;7.75;;;5.10;;
73779;SDS011;62093;37.614;15.072;2023-09-30T10:04:57;8.35;;;5.00;;
73779;SDS011;62093;37.614;15.072;2023-09-30T10:07:36;9.63;;;5.50;;
73779;SDS011;62093;37.614;15.072;2023-09-30T10:10:11;7.82;;;5.30;;
73779;SDS011;62093;37.614;15.072;2023-09-30T10:12:43;8.20;;;5.35;;
73779;SDS011;62093;37.614;15.072;2023-09-30T10:18:06;7.93;;;5.45;;
73779;SDS011;62093;37.614;15.072;2023-09-30T10:20:36;8.40;;;5.50;;
73779;SDS011;62093;37.614;15.072;2023-09-30T10:25:48;8.52;;;5.78;;
73779;SDS011;62093;37.614;15.072;2023-09-30T10:28:40;8.77;;;5.57;;
73779;SDS011;62093;37.614;15.072;2023-09-30T10:31:16;8.35;;;5.40;;
73779;SDS011;62093;37.614;15.072;2023-09-30T10:36:41;8.98;;;5.55;;
73779;SDS011;62093;37.614;15.072;2023-09-30T10:39:13;9.00;;;5.93;;
73779;SDS011;62093;37.614;15.072;2023-09-30T10:49:56;9.15;;;5.47;;
73779;SDS011;62093;37.614;15.072;2023-09-30T10:52:24;9.40;;;5.53;;
73779;SDS011;62093;37.614;15.072;2023-09-30T10:55:02;9.23;;;5.65;;
73779;SDS011;62093;37.614;15.072;2023-09-30T10:57:31;8.43;;;5.80;;
73779;SDS011;62093;37.614;15.072;2023-09-30T11:00:19;10.93;;;6.30;;
73779;SDS011;62093;37.614;15.072;2023-09-30T11:02:50;9.23;;;6.00;;
73779;SDS011;62093;37.614;15.072;2023-09-30T11:05:32;10.00;;;5.93;;
73779;SDS011;62093;37.614;15.072;2023-09-30T11:08:01;9.65;;;6.22;;
73779;SDS011;62093;37.614;15.072;2023-09-30T11:10:31;9.52;;;6.32;;
73779;SDS011;62093;37.614;15.072;2023-09-30T11:13:04;9.07;;;6.17;;
73779;SDS011;62093;37.614;15.072;2023-09-30T11:15:59;10.73;;;6.55;;
73779;SDS011;62093;37.614;15.072;2023-09-30T11:18:31;9.90;;;6.57;;
73779;SDS011;62093;37.614;15.072;2023-09-30T11:23:35;9.82;;;6.00;;
73779;SDS011;62093;37.614;15.072;2023-09-30T11:26:03;9.67;;;6.07;;
73779;SDS011;62093;37.614;15.072;2023-09-30T11:28:40;9.43;;;6.00;;
73779;SDS011;62093;37.614;15.072;2023-09-30T11:31:12;9.38;;;5.80;;
73779;SDS011;62093;37.614;15.072;2023-09-30T11:33:53;13.75;;;5.80;;
73779;SDS011;62093;37.614;15.072;2023-09-30T11:36:39;9.68;;;6.28;;
73779;SDS011;62093;37.614;15.072;2023-09-30T11:39:22;9.20;;;6.10;;
73779;SDS011;62093;37.614;15.072;2023-09-30T11:42:00;10.20;;;6.70;;
73779;SDS011;62093;37.614;15.072;2023-09-30T11:44:47;11.18;;;6.93;;
73779;SDS011;62093;37.614;15.072;2023-09-30T11:47:15;10.98;;;6.45;;
73779;SDS011;62093;37.614;15.072;2023-09-30T11:50:04;10.70;;;6.28;;
73779;SDS011;62093;37.614;15.072;2023-09-30T11:52:33;10.77;;;6.13;;
73779;SDS011;62093;37.614;15.072;2023-09-30T11:55:12;9.10;;;6.30;;
73779;SDS011;62093;37.614;15.072;2023-09-30T11:57:43;9.88;;;6.28;;
73779;SDS011;62093;37.614;15.072;2023-09-30T12:00:10;9.90;;;6.47;;
73779;SDS011;62093;37.614;15.072;2023-09-30T12:02:41;9.73;;;6.07;;
73779;SDS011;62093;37.614;15.072;2023-09-30T12:05:11;9.27;;;6.27;;
73779;SDS011;62093;37.614;15.072;2023-09-30T12:07:40;9.77;;;6.70;;
73779;SDS011;62093;37.614;15.072;2023-09-30T12:10:14;9.77;;;6.05;;
73779;SDS011;62093;37.614;15.072;2023-09-30T12:12:46;10.48;;;6.68;;
73779;SDS011;62093;37.614;15.072;2023-09-30T12:15:13;10.80;;;6.10;;
73779;SDS011;62093;37.614;15.072;2023-09-30T12:17:48;12.93;;;7.57;;
73779;SDS011;62093;37.614;15.072;2023-09-30T12:20:22;9.95;;;6.55;;
73779;SDS011;62093;37.614;15.072;2023-09-30T12:22:54;9.43;;;6.35;;
73779;SDS011;62093;37.614;15.072;2023-09-30T12:25:36;9.88;;;6.25;;
73779;SDS011;62093;37.614;15.072;2023-09-30T12:28:04;10.88;;;7.47;;
73779;SDS011;62093;37.614;15.072;2023-09-30T12:30:32;9.43;;;6.30;;
73779;SDS011;62093;37.614;15.072;2023-09-30T12:33:02;9.48;;;6.45;;
73779;SDS011;62093;37.614;15.072;2023-09-30T12:35:43;9.00;;;6.40;;
73779;SDS011;62093;37.614;15.072;2023-09-30T12:38:13;9.57;;;5.97;;
73779;SDS011;62093;37.614;15.072;2023-09-30T12:40:48;8.60;;;5.97;;
73779;SDS011;62093;37.614;15.072;2023-09-30T12:43:15;8.53;;;5.97;;
73779;SDS011;62093;37.614;15.072;2023-09-30T12:45:51;9.65;;;6.28;;
73779;SDS011;62093;37.614;15.072;2023-09-30T12:48:24;8.35;;;5.53;;
73779;SDS011;62093;37.614;15.072;2023-09-30T12:51:06;9.73;;;6.30;;
73779;SDS011;62093;37.614;15.072;2023-09-30T12:53:35;9.82;;;6.38;;
73779;SDS011;62093;37.614;15.072;2023-09-30T12:56:22;8.70;;;5.87;;
73779;SDS011;62093;37.614;15.072;2023-09-30T13:01:36;8.02;;;5.47;;
73779;SDS011;62093;37.614;15.072;2023-09-30T13:04:04;8.48;;;5.53;;
73779;SDS011;62093;37.614;15.072;2023-09-30T13:06:44;10.75;;;6.55;;
73779;SDS011;62093;37.614;15.072;2023-09-30T13:09:19;9.33;;;6.27;;
73779;SDS011;62093;37.614;15.072;2023-09-30T13:11:52;8.50;;;5.95;;
73779;SDS011;62093;37.614;15.072;2023-09-30T13:14:19;9.02;;;6.03;;
73779;SDS011;62093;37.614;15.072;2023-09-30T13:16:54;9.25;;;5.78;;
73779;SDS011;62093;37.614;15.072;2023-09-30T13:19:27;8.70;;;6.00;;
73779;SDS011;62093;37.614;15.072;2023-09-30T13:22:10;8.87;;;5.90;;
73779;SDS011;62093;37.614;15.072;2023-09-30T13:24:42;9.35;;;6.35;;
73779;SDS011;62093;37.614;15.072;2023-09-30T13:27:18;8.57;;;6.18;;
73779;SDS011;62093;37.614;15.072;2023-09-30T13:29:52;9.43;;;6.30;;
73779;SDS011;62093;37.614;15.072;2023-09-30T13:32:34;10.77;;;6.47;;
73779;SDS011;62093;37.614;15.072;2023-09-30T13:35:20;10.37;;;6.70;;
73779;SDS011;62093;37.614;15.072;2023-09-30T13:37:53;8.75;;;6.00;;
73779;SDS011;62093;37.614;15.072;2023-09-30T13:40:26;9.50;;;6.30;;
73779;SDS011;62093;37.614;15.072;2023-09-30T13:42:55;11.18;;;6.70;;
73779;SDS011;62093;37.614;15.072;2023-09-30T13:45:25;9.50;;;6.18;;
73779;SDS011;62093;37.614;15.072;2023-09-30T13:47:59;9.47;;;6.60;;
73779;SDS011;62093;37.614;15.072;2023-09-30T13:50:32;9.13;;;6.68;;
73779;SDS011;62093;37.614;15.072;2023-09-30T13:53:03;9.90;;;5.88;;
73779;SDS011;62093;37.614;15.072;2023-09-30T13:55:41;9.07;;;6.68;;
73779;SDS011;62093;37.614;15.072;2023-09-30T13:58:12;9.57;;;6.40;;
73779;SDS011;62093;37.614;15.072;2023-09-30T14:00:48;9.50;;;6.27;;
73779;SDS011;62093;37.614;15.072;2023-09-30T14:03:19;11.13;;;6.30;;
73779;SDS011;62093;37.614;15.072;2023-09-30T14:05:50;9.77;;;6.88;;
73779;SDS011;62093;37.614;15.072;2023-09-30T14:08:20;10.25;;;6.35;;
73779;SDS011;62093;37.614;15.072;2023-09-30T14:10:56;10.55;;;6.40;;
73779;SDS011;62093;37.614;15.072;2023-09-30T14:13:26;9.80;;;6.53;;
73779;SDS011;62093;37.614;15.072;2023-09-30T14:16:00;10.30;;;6.70;;
73779;SDS011;62093;37.614;15.072;2023-09-30T14:18:28;10.73;;;6.90;;
73779;SDS011;62093;37.614;15.072;2023-09-30T14:21:01;8.95;;;6.47;;
73779;SDS011;62093;37.614;15.072;2023-09-30T14:23:30;9.65;;;7.03;;
73779;SDS011;62093;37.614;15.072;2023-09-30T14:26:00;11.60;;;7.07;;
73779;SDS011;62093;37.614;15.072;2023-09-30T14:28:37;12.50;;;7.03;;
73779;SDS011;62093;37.614;15.072;2023-09-30T14:31:18;8.98;;;6.47;;
73779;SDS011;62093;37.614;15.072;2023-09-30T14:33:51;9.70;;;6.47;;
73779;SDS011;62093;37.614;15.072;2023-09-30T14:36:23;10.70;;;6.85;;
73779;SDS011;62093;37.614;15.072;2023-09-30T14:41:31;9.07;;;6.53;;
73779;SDS011;62093;37.614;15.072;2023-09-30T14:44:01;9.40;;;6.55;;
73779;SDS011;62093;37.614;15.072;2023-09-30T14:46:42;11.05;;;7.40;;
73779;SDS011;62093;37.614;15.072;2023-09-30T14:49:12;10.93;;;6.90;;
73779;SDS011;62093;37.614;15.072;2023-09-30T14:51:52;11.00;;;6.93;;
73779;SDS011;62093;37.614;15.072;2023-09-30T14:54:22;10.82;;;6.53;;
73779;SDS011;62093;37.614;15.072;2023-09-30T14:56:59;10.05;;;6.70;;
73779;SDS011;62093;37.614;15.072;2023-09-30T14:59:40;9.20;;;6.53;;
73779;SDS011;62093;37.614;15.072;2023-09-30T15:02:10;10.25;;;7.00;;
73779;SDS011;62093;37.614;15.072;2023-09-30T15:04:48;10.13;;;6.50;;
73779;SDS011;62093;37.614;15.072;2023-09-30T15:07:25;10.60;;;6.80;;
73779;SDS011;62093;37.614;15.072;2023-09-30T15:10:01;9.98;;;7.00;;
73779;SDS011;62093;37.614;15.072;2023-09-30T15:12:43;9.55;;;6.50;;
73779;SDS011;62093;37.614;15.072;2023-09-30T15:15:19;9.88;;;6.82;;
73779;SDS011;62093;37.614;15.072;2023-09-30T15:17:57;9.27;;;6.40;;
73779;SDS011;62093;37.614;15.072;2023-09-30T15:20:36;9.80;;;7.10;;
73779;SDS011;62093;37.614;15.072;2023-09-30T15:23:06;10.45;;;7.15;;
73779;SDS011;62093;37.614;15.072;2023-09-30T15:25:45;9.90;;;6.53;;
73779;SDS011;62093;37.614;15.072;2023-09-30T15:28:22;10.00;;;6.40;;
73779;SDS011;62093;37.614;15.072;2023-09-30T15:34:00;9.88;;;7.13;;
73779;SDS011;62093;37.614;15.072;2023-09-30T15:36:27;10.15;;;7.07;;
73779;SDS011;62093;37.614;15.072;2023-09-30T15:38:55;9.57;;;7.20;;
73779;SDS011;62093;37.614;15.072;2023-09-30T15:41:27;10.10;;;6.97;;
73779;SDS011;62093;37.614;15.072;2023-09-30T15:44:00;10.10;;;6.37;;
73779;SDS011;62093;37.614;15.072;2023-09-30T15:46:33;9.93;;;7.20;;
73779;SDS011;62093;37.614;15.072;2023-09-30T15:49:13;10.07;;;6.80;;